createdAt,value
2019-04-04T05:00:27.898Z,16.83
2019-04-04T05:31:36.146Z,17.23
2019-04-04T05:38:15.036Z,17.10
2019-04-04T05:45:15.914Z,16.07
2019-04-04T05:54:59.677Z,16.30
2019-04-04T05:57:31.503Z,17.07
2019-04-04T06:00:00.270Z,16.87
2019-04-04T06:02:29.106Z,16.77
2019-04-04T06:04:57.860Z,18.07
2019-04-04T06:07:26.771Z,18.10
2019-04-04T06:09:55.718Z,16.67
2019-04-04T06:12:25.193Z,16.90
2019-04-04T06:15:10.518Z,17.13
2019-04-04T06:17:44.587Z,16.93
2019-04-04T06:20:48.392Z,18.10
2019-04-04T06:23:52.019Z,16.40
2019-04-04T06:26:20.595Z,16.47
2019-04-04T06:28:49.206Z,17.10
2019-04-04T06:31:17.837Z,16.40
2019-04-04T06:33:46.481Z,15.73
2019-04-04T06:36:17.561Z,16.10
2019-04-04T06:38:45.329Z,16.40
2019-04-04T06:41:14.269Z,16.70
2019-04-04T06:43:43.232Z,16.07
2019-04-04T06:46:11.922Z,15.87
2019-04-04T06:48:40.470Z,17.10
2019-04-04T06:51:09.390Z,16.33
2019-04-04T06:53:38.111Z,17.67
2019-04-04T06:56:06.951Z,15.37
2019-04-04T06:58:35.537Z,15.90
2019-04-04T07:01:04.083Z,16.63
2019-04-04T07:03:32.715Z,15.70
2019-04-04T07:06:01.470Z,15.27
2019-04-04T07:08:30.264Z,16.30
2019-04-04T07:11:02.675Z,16.43
2019-04-04T07:13:41.449Z,15.53
2019-04-04T07:16:06.837Z,16.33
2019-04-04T07:18:30.407Z,16.97
2019-04-04T07:20:59.120Z,15.97
2019-04-04T07:23:28.530Z,16.07
2019-04-04T07:25:57.320Z,16.00
2019-04-04T07:28:26.145Z,15.67
2019-04-04T07:30:55.077Z,15.63
2019-04-04T07:33:24.079Z,15.80
2019-04-04T07:35:53.027Z,15.23
2019-04-04T07:38:21.816Z,15.93
2019-04-04T07:40:50.732Z,16.80
2019-04-04T07:43:20.056Z,16.17
2019-04-04T07:45:49.866Z,16.53
2019-04-04T07:48:18.778Z,16.30
2019-04-04T07:50:47.497Z,15.93
2019-04-04T07:53:16.204Z,15.47
2019-04-04T07:55:45.124Z,16.80
2019-04-04T07:58:14.032Z,16.63
2019-04-04T08:00:43.025Z,16.40
2019-04-04T08:03:11.636Z,17.40
2019-04-04T08:05:40.583Z,15.93
2019-04-04T08:08:09.463Z,16.73
2019-04-04T08:10:38.467Z,19.10
2019-04-04T08:13:07.314Z,21.27
2019-04-04T08:15:38.504Z,19.43
2019-04-04T08:18:07.205Z,20.20
2019-04-04T08:20:36.090Z,20.73
2019-04-04T08:23:04.852Z,19.33
2019-04-04T08:25:33.718Z,20.20
2019-04-04T08:28:02.602Z,21.87
2019-04-04T08:30:31.413Z,22.87
2019-04-04T08:33:02.124Z,22.90
2019-04-04T08:35:31.135Z,21.00
2019-04-04T08:38:00.930Z,20.30
2019-04-04T08:40:29.807Z,20.20
2019-04-04T08:42:58.709Z,19.97
2019-04-04T08:45:27.504Z,19.00
2019-04-04T08:47:56.389Z,19.73
2019-04-04T08:50:25.772Z,20.90
2019-04-04T08:52:54.731Z,21.33
2019-04-04T08:55:23.541Z,21.70
2019-04-04T08:57:52.645Z,25.80
2019-04-04T09:00:21.737Z,25.37
2019-04-04T09:02:50.560Z,25.77
2019-04-04T09:05:21.495Z,27.43
2019-04-04T09:07:50.329Z,25.27
2019-04-04T09:10:19.395Z,27.17
2019-04-04T09:12:48.369Z,34.63
2019-04-04T09:15:17.414Z,33.13
2019-04-04T09:17:49.530Z,33.20
2019-04-04T09:20:21.628Z,32.03
2019-04-04T09:22:50.705Z,32.30
2019-04-04T09:25:22.248Z,30.87
2019-04-04T09:27:51.279Z,30.57
2019-04-04T09:30:26.423Z,31.33
2019-04-04T09:32:55.280Z,32.77
2019-04-04T09:35:24.044Z,36.43
2019-04-04T09:37:58.586Z,33.47
2019-04-04T09:40:28.100Z,32.20
2019-04-04T09:42:57.119Z,33.23
2019-04-04T09:45:26.181Z,32.00
2019-04-04T09:47:57.148Z,34.47
2019-04-04T09:50:26.174Z,32.27
2019-04-04T09:52:56.806Z,31.73
2019-04-04T09:55:25.878Z,30.67
2019-04-04T09:57:55.178Z,30.07
2019-04-04T10:00:24.133Z,30.00
2019-04-04T10:02:55.257Z,31.40
2019-04-04T10:05:24.345Z,30.43
2019-04-04T10:07:57.548Z,25.90
2019-04-04T10:10:38.460Z,25.10
2019-04-04T10:13:11.809Z,26.37
2019-04-04T10:16:00.916Z,25.40
2019-04-04T10:18:32.745Z,22.60
2019-04-04T10:21:11.590Z,19.70
2019-04-04T10:23:39.602Z,19.87
2019-04-04T10:26:08.440Z,17.70
2019-04-04T10:28:37.304Z,22.43
2019-04-04T10:31:06.039Z,25.57
2019-04-04T10:33:34.882Z,21.00
2019-04-04T10:36:03.804Z,19.93
2019-04-04T10:38:32.688Z,19.07
2019-04-04T10:41:01.496Z,19.50
2019-04-04T10:43:30.168Z,20.30
2019-04-04T10:45:58.943Z,21.00
2019-04-04T10:48:28.251Z,20.20
2019-04-04T10:50:57.122Z,16.30
2019-04-04T10:53:26.108Z,15.27
2019-04-04T10:55:54.785Z,14.90
2019-04-04T10:58:23.639Z,13.23
2019-04-04T11:00:52.460Z,14.00
2019-04-04T11:03:21.378Z,13.10
2019-04-04T11:05:50.167Z,12.53
2019-04-04T11:08:18.992Z,12.43
2019-04-04T11:10:47.913Z,12.83
2019-04-04T11:13:16.515Z,13.00
2019-04-04T11:15:45.134Z,13.93
2019-04-04T11:18:13.805Z,13.60
2019-04-04T11:20:42.802Z,14.63
2019-04-04T11:23:11.611Z,14.10
2019-04-04T11:25:40.403Z,14.50
2019-04-04T11:28:09.301Z,13.77
2019-04-04T11:30:38.118Z,14.27
2019-04-04T11:33:06.827Z,13.23
2019-04-04T11:35:35.584Z,12.20
2019-04-04T11:38:04.257Z,11.97
2019-04-04T11:40:33.093Z,11.97
2019-04-04T11:43:01.762Z,11.77
2019-04-04T11:45:30.457Z,12.37
2019-04-04T11:47:59.286Z,12.13
2019-04-04T11:50:28.063Z,12.93
2019-04-04T11:52:56.837Z,13.43
2019-04-04T11:55:25.766Z,12.63
2019-04-04T11:57:54.409Z,13.93
2019-04-04T12:00:29.653Z,16.27
2019-04-04T12:02:58.587Z,16.40
2019-04-04T12:05:27.393Z,15.53
2019-04-04T12:07:56.023Z,15.13
2019-04-04T12:10:24.809Z,13.80
2019-04-04T12:12:53.534Z,14.77
2019-04-04T12:15:22.288Z,14.03
2019-04-04T12:17:51.096Z,13.43
2019-04-04T12:20:19.918Z,13.60
2019-04-04T12:22:48.613Z,13.50
2019-04-04T12:25:17.425Z,14.13
2019-04-04T12:27:45.873Z,13.53
2019-04-04T12:30:14.684Z,11.97
2019-04-04T12:32:43.472Z,12.23
2019-04-04T12:35:14.940Z,11.53
2019-04-04T12:37:43.779Z,12.13
2019-04-04T12:40:20.344Z,11.40
2019-04-04T12:42:43.059Z,10.77
2019-04-04T12:45:11.674Z,10.57
2019-04-04T12:47:40.361Z,11.03
2019-04-04T12:50:09.210Z,10.57
2019-04-04T12:52:38.006Z,10.60
2019-04-04T12:55:06.786Z,10.97
2019-04-04T12:57:35.390Z,11.60
2019-04-04T13:00:04.161Z,11.70
2019-04-04T13:02:33.001Z,10.80
2019-04-04T13:05:14.558Z,9.60
2019-04-04T13:07:42.713Z,9.10
2019-04-04T13:10:12.210Z,9.10
2019-04-04T13:12:40.965Z,8.70
2019-04-04T13:15:09.555Z,9.80
2019-04-04T13:17:38.180Z,8.17
2019-04-04T13:20:06.775Z,7.97
2019-04-04T13:22:35.415Z,6.50
2019-04-04T13:25:04.286Z,5.67
2019-04-04T13:27:32.985Z,5.73
2019-04-04T13:30:04.755Z,5.13
2019-04-04T13:32:33.417Z,4.50
2019-04-04T13:35:04.851Z,5.27
2019-04-04T13:37:32.596Z,6.90
2019-04-04T13:40:01.463Z,5.60
2019-04-04T13:42:30.278Z,4.17
2019-04-04T13:44:59.035Z,4.10
2019-04-04T13:47:27.828Z,4.27
2019-04-04T13:49:56.598Z,3.47
2019-04-04T13:52:26.446Z,3.57
2019-04-04T13:54:56.091Z,3.67
2019-04-04T13:57:25.046Z,3.47
2019-04-04T13:59:53.633Z,4.27
2019-04-04T14:02:22.328Z,4.17
2019-04-04T14:04:50.897Z,3.70
2019-04-04T14:07:19.445Z,3.00
2019-04-04T14:09:48.168Z,3.47
2019-04-04T14:12:16.869Z,3.30
2019-04-04T14:14:45.531Z,5.20
2019-04-04T14:17:14.264Z,5.63
2019-04-04T14:19:42.907Z,5.83
2019-04-04T14:22:11.559Z,6.97
2019-04-04T14:24:46.282Z,6.57
2019-04-04T14:27:15.502Z,6.97
2019-04-04T14:29:48.712Z,6.03
2019-04-04T14:32:22.352Z,4.37
2019-04-04T14:34:51.341Z,5.53
2019-04-04T14:51:44.684Z,5.93
2019-04-04T14:54:13.318Z,6.37
2019-04-04T14:56:42.370Z,6.53
2019-04-04T14:59:11.058Z,6.43
2019-04-04T15:01:39.815Z,5.90
2019-04-04T15:04:08.477Z,6.20
2019-04-04T15:06:37.134Z,6.33
2019-04-04T15:09:06.622Z,6.40
2019-04-04T15:11:35.363Z,6.10
2019-04-04T15:14:03.973Z,6.07
2019-04-04T15:16:32.525Z,5.90
2019-04-04T15:19:01.240Z,5.97
2019-04-04T15:21:29.798Z,6.20
2019-04-04T15:23:58.379Z,5.80
2019-04-04T15:26:26.440Z,5.70
2019-04-04T15:28:55.135Z,5.67
2019-04-04T15:31:23.852Z,6.37
2019-04-04T15:33:52.753Z,5.97
2019-04-04T15:36:21.455Z,5.73
2019-04-04T15:38:50.174Z,6.10
2019-04-04T15:41:19.005Z,5.30
2019-04-04T15:43:47.780Z,6.10
2019-04-04T15:46:16.556Z,5.87
2019-04-04T15:48:45.223Z,6.30
2019-04-04T15:51:13.938Z,6.40
2019-04-04T15:53:42.755Z,5.70
2019-04-04T15:56:11.331Z,5.93
2019-04-04T15:58:40.061Z,6.23
2019-04-04T16:01:08.643Z,6.23
2019-04-04T16:03:37.240Z,5.80
2019-04-04T16:06:05.796Z,5.97
2019-04-04T16:08:34.550Z,5.60
2019-04-04T16:11:03.465Z,5.67
2019-04-04T16:13:32.190Z,5.80
2019-04-04T16:16:00.819Z,6.13
2019-04-04T16:18:29.554Z,6.10
2019-04-04T16:20:58.521Z,6.07
2019-04-04T16:23:27.217Z,6.57
2019-04-04T16:25:55.934Z,5.73
2019-04-04T16:28:24.552Z,6.67
2019-04-04T16:30:53.549Z,6.57
2019-04-04T16:33:26.520Z,6.73
2019-04-04T16:35:56.215Z,6.30
2019-04-04T16:38:25.173Z,6.33
2019-04-04T16:40:57.018Z,6.23
2019-04-04T16:43:25.862Z,6.13
2019-04-04T16:45:55.901Z,6.27
2019-04-04T16:48:45.325Z,6.00
2019-04-04T16:51:21.443Z,5.57
2019-04-04T16:53:58.123Z,6.27
2019-04-04T16:56:26.909Z,6.17
2019-04-04T17:02:05.932Z,6.03
2019-04-04T17:04:35.022Z,6.43
2019-04-04T17:07:07.395Z,6.37
2019-04-04T17:09:36.759Z,6.20
2019-04-04T17:12:14.757Z,5.60
2019-04-04T17:14:39.101Z,5.57
2019-04-04T17:17:07.909Z,6.00
2019-04-04T17:19:48.352Z,6.00
2019-04-04T17:22:23.100Z,5.90
2019-04-04T17:24:56.673Z,5.63
2019-04-04T17:27:33.122Z,5.80
2019-04-04T17:30:05.507Z,5.97
2019-04-04T17:32:36.703Z,6.00
2019-04-04T17:35:27.048Z,6.17
2019-04-04T17:38:28.469Z,6.53
2019-04-04T17:40:58.114Z,6.07
2019-04-04T17:43:52.305Z,6.13
2019-04-04T17:47:20.279Z,6.20
2019-04-04T17:54:01.581Z,6.53
2019-04-04T17:56:59.397Z,6.13
2019-04-04T18:57:45.734Z,8.70
2019-04-04T20:20:58.660Z,16.63
2019-04-04T20:24:02.833Z,16.87
2019-04-04T20:27:02.971Z,18.17
2019-04-04T20:30:14.381Z,17.63
2019-04-04T20:33:21.641Z,17.07
2019-04-04T20:35:57.826Z,17.73
2019-04-04T20:47:45.108Z,21.33
2019-04-04T20:50:14.253Z,22.20
2019-04-04T20:52:43.454Z,23.37
2019-04-04T20:55:12.372Z,23.17
2019-04-04T20:57:41.273Z,24.10
2019-04-04T21:00:10.723Z,25.40
2019-04-04T21:02:39.781Z,26.40
2019-04-04T21:05:08.570Z,26.30
2019-04-04T21:07:37.250Z,27.47
2019-04-04T21:10:06.220Z,28.60
2019-04-04T21:12:38.104Z,28.13
2019-04-04T21:15:09.247Z,29.90
2019-04-04T21:17:41.273Z,28.20
2019-04-04T21:20:10.153Z,28.50
2019-04-04T21:22:42.614Z,29.37
2019-04-04T21:25:12.157Z,28.27
2019-04-04T21:27:44.391Z,29.23
2019-04-04T21:30:14.714Z,29.57
2019-04-04T21:32:48.822Z,29.77
2019-04-04T21:35:21.189Z,30.13
2019-04-04T21:37:50.611Z,30.03
2019-04-04T21:40:20.591Z,31.70
2019-04-04T21:42:49.434Z,30.13
2019-04-04T21:45:19.105Z,33.37
2019-04-04T21:47:47.934Z,32.67
2019-04-04T21:50:17.149Z,32.43
2019-04-04T21:52:46.348Z,33.53
2019-04-04T21:55:18.338Z,34.33
2019-04-04T21:57:48.925Z,33.57
2019-04-04T22:00:18.695Z,34.23
2019-04-04T22:02:49.221Z,34.53
2019-04-04T22:05:18.526Z,34.20
2019-04-04T22:07:47.640Z,35.37
2019-04-04T22:10:17.045Z,34.67
2019-04-04T22:12:52.432Z,35.80
2019-04-04T22:15:34.175Z,36.30
2019-04-04T22:18:06.843Z,35.93
2019-04-04T22:20:40.335Z,36.67
2019-04-04T22:23:17.652Z,35.03
2019-04-04T22:25:47.190Z,36.57
2019-04-04T22:28:16.768Z,35.83
2019-04-04T22:30:48.896Z,35.23
2019-04-04T22:33:25.615Z,38.03
2019-04-04T22:36:05.671Z,37.90
2019-04-04T22:38:50.166Z,38.37
2019-04-04T22:41:32.779Z,36.30
2019-04-04T22:44:20.342Z,36.90
2019-04-04T22:46:56.087Z,39.00
2019-04-04T22:49:29.693Z,38.10
2019-04-04T22:52:02.984Z,36.63
2019-04-04T23:00:18.220Z,37.00
2019-04-04T23:03:07.144Z,38.80
2019-04-04T23:08:51.428Z,37.30
2019-04-04T23:11:20.927Z,37.20
2019-04-04T23:13:50.323Z,35.90
2019-04-04T23:16:19.933Z,36.37
2019-04-04T23:18:49.100Z,35.60
2019-04-04T23:21:18.519Z,36.40
2019-04-04T23:23:47.844Z,35.73
2019-04-04T23:26:17.016Z,35.97
2019-04-04T23:28:46.022Z,36.93
2019-04-04T23:31:15.117Z,35.57
2019-04-04T23:33:44.192Z,36.27
2019-04-04T23:36:13.041Z,35.30
2019-04-04T23:38:42.100Z,33.67
2019-04-04T23:41:10.790Z,35.47
2019-04-04T23:43:39.896Z,34.07
2019-04-04T23:46:08.978Z,35.73
2019-04-04T23:48:37.983Z,35.47
2019-04-04T23:51:07.215Z,35.83
2019-04-04T23:53:36.247Z,35.20
2019-04-04T23:56:07.727Z,34.30
2019-04-04T23:58:36.636Z,32.77
